Time;durP1;ratioP1;P1;durP2;ratioP2;P2;SDS_P1;SDS_P2;PMS_P1;PMS_P2;Temp;Humidity;BMP_temperature;BMP_pressure;BME280_temperature;BME280_humidity;BME280_pressure;Samples;Min_cycle;Max_cycle;Signal;HPM_P1;HPM_P2
2023/07/26 00:01:54;;;;;;;1.42;0.70;;;;;;;20.90;57.99;101098.44;5003777;28;20038;-53
2023/07/26 00:04:19;;;;;;;0.70;0.70;;;;;;;20.88;58.07;101103.16;5004236;28;20369;-53
2023/07/26 00:06:44;;;;;;;0.82;0.80;;;;;;;20.88;58.27;101106.69;5004254;28;20030;-53
2023/07/26 00:09:10;;;;;;;0.60;0.60;;;;;;;20.89;57.59;101104.88;5003458;28;20042;-53
2023/07/26 00:11:36;;;;;;;0.90;0.80;;;;;;;20.89;58.23;101107.56;5003737;28;20163;-53
2023/07/26 00:14:06;;;;;;;0.63;0.63;;;;;;;20.87;58.21;101096.91;5003448;28;20037;-53
2023/07/26 00:16:32;;;;;;;1.52;0.60;;;;;;;20.87;58.07;101098.75;5002156;28;20030;-53
2023/07/26 00:18:58;;;;;;;0.70;0.70;;;;;;;20.87;57.76;101098.75;5003652;28;20396;-53
2023/07/26 00:21:23;;;;;;;0.77;0.77;;;;;;;20.85;58.02;101096.22;5003924;28;20046;-53
2023/07/26 00:23:49;;;;;;;0.82;0.80;;;;;;;20.86;58.16;101103.31;5004849;28;20061;-53
2023/07/26 00:26:14;;;;;;;0.88;0.80;;;;;;;20.86;57.96;101107.88;5002276;28;20069;-53
2023/07/26 00:28:39;;;;;;;1.35;0.80;;;;;;;20.84;57.70;101094.50;5002910;28;20461;-53
2023/07/26 00:31:05;;;;;;;0.73;0.70;;;;;;;20.85;57.71;101095.38;5001580;28;20062;-53
2023/07/26 00:33:31;;;;;;;1.40;0.70;;;;;;;20.85;57.90;101095.38;5002437;28;20539;-53
2023/07/26 00:35:56;;;;;;;0.82;0.70;;;;;;;20.85;57.80;101096.22;5002950;28;20121;-53
2023/07/26 00:38:21;;;;;;;0.75;0.70;;;;;;;20.85;57.94;101092.66;5002234;28;20041;-53
2023/07/26 00:40:47;;;;;;;0.73;0.70;;;;;;;20.84;57.74;101088.25;5002772;28;20034;-53
2023/07/26 00:43:12;;;;;;;0.65;0.60;;;;;;;20.83;57.78;101094.69;5002678;28;20439;-53
2023/07/26 00:45:40;;;;;;;1.27;0.90;;;;;;;20.83;57.89;101092.81;5001796;28;20153;-53
2023/07/26 00:48:06;;;;;;;1.23;0.70;;;;;;;20.83;57.53;101091.97;5002068;28;20030;-53
2023/07/26 00:50:32;;;;;;;0.63;0.63;;;;;;;20.83;57.71;101091.97;5002593;28;20122;-53
2023/07/26 00:52:57;;;;;;;1.30;0.90;;;;;;;20.83;57.38;101086.56;5001628;28;20449;-53
2023/07/26 00:55:24;;;;;;;0.70;0.70;;;;;;;20.82;57.77;101092.97;5002037;28;20045;-53
2023/07/26 00:57:50;;;;;;;0.70;0.70;;;;;;;20.81;57.41;101089.44;5002837;28;20105;-53
2023/07/26 01:00:16;;;;;;;0.70;0.70;;;;;;;20.81;57.33;101091.25;5001507;28;20121;-53
2023/07/26 01:02:42;;;;;;;1.45;0.80;;;;;;;20.81;57.57;101091.25;5001386;28;20445;-54
2023/07/26 01:05:08;;;;;;;1.48;0.63;;;;;;;20.80;57.66;101081.47;5003511;28;20042;-53
2023/07/26 01:08:05;;;;;;;0.70;0.70;;;;;;;20.82;57.58;101087.56;5003909;28;20076;-52
2023/07/26 01:10:33;;;;;;;0.77;0.77;;;;;;;20.79;57.20;101086.03;4999417;28;20109;-53
2023/07/26 01:13:07;;;;;;;1.77;0.70;;;;;;;20.80;57.22;101090.41;5001565;28;20077;-52
2023/07/26 01:15:37;;;;;;;0.80;0.80;;;;;;;20.78;57.42;101087.03;5002437;28;20034;-53
2023/07/26 01:18:13;;;;;;;0.60;0.60;;;;;;;20.79;57.25;101095.97;4995893;28;20033;-53
2023/07/26 01:20:39;;;;;;;0.80;0.80;;;;;;;20.78;57.23;101095.13;4999128;28;20026;-53
2023/07/26 01:23:06;;;;;;;1.13;0.93;;;;;;;20.78;57.50;101089.72;5002423;28;20519;-53
2023/07/26 01:25:32;;;;;;;0.70;0.70;;;;;;;20.77;57.34;101088.06;5001058;28;20029;-52
2023/07/26 01:27:57;;;;;;;0.88;0.88;;;;;;;20.77;57.34;101088.06;5001542;28;20077;-52
2023/07/26 01:30:23;;;;;;;0.80;0.80;;;;;;;20.77;57.00;101103.41;5002597;28;20472;-52
2023/07/26 01:32:51;;;;;;;1.23;0.77;;;;;;;20.76;57.33;101094.47;5001460;28;20074;-53
2023/07/26 01:35:21;;;;;;;0.73;0.70;;;;;;;20.76;56.76;101097.16;5001777;28;20467;-53
2023/07/26 01:37:47;;;;;;;0.85;0.70;;;;;;;20.76;57.19;101097.16;4999421;28;20468;-53
2023/07/26 01:40:13;;;;;;;0.63;0.60;;;;;;;20.76;57.37;101096.31;5003400;28;20113;-53
2023/07/26 01:42:41;;;;;;;0.73;0.73;;;;;;;20.76;57.10;101101.72;5001134;28;20037;-53
2023/07/26 01:45:09;;;;;;;1.20;0.90;;;;;;;20.75;57.30;101091.91;5001757;28;20479;-53
2023/07/26 01:47:34;;;;;;;1.65;0.70;;;;;;;20.75;56.77;101089.19;5001081;28;20041;-53
2023/07/26 01:50:00;;;;;;;0.70;0.60;;;;;;;20.74;57.01;101096.47;5003185;28;20030;-53
2023/07/26 01:52:26;;;;;;;0.82;0.82;;;;;;;20.74;56.62;101091.06;5001537;28;20036;-54
2023/07/26 01:54:51;;;;;;;1.63;1.05;;;;;;;20.74;56.51;101096.47;5001091;28;20095;-52
2023/07/26 01:57:16;;;;;;;1.08;0.90;;;;;;;20.74;56.76;101098.34;5000025;28;20062;-53
2023/07/26 01:59:42;;;;;;;1.20;0.82;;;;;;;20.74;56.44;101093.75;5003743;28;20088;-53
2023/07/26 02:02:08;;;;;;;1.35;1.25;;;;;;;20.74;56.55;101092.94;5000334;28;20030;-53
2023/07/26 02:04:33;;;;;;;2.35;1.15;;;;;;;20.74;56.43;101090.22;4997028;28;20072;-53
2023/07/26 02:06:58;;;;;;;1.77;1.10;;;;;;;20.74;56.51;101087.50;5000936;28;20480;-53
2023/07/26 02:09:24;;;;;;;0.95;0.93;;;;;;;20.73;56.54;101092.06;5000441;28;20025;-53
2023/07/26 02:11:49;;;;;;;0.80;0.80;;;;;;;20.73;56.32;101092.06;5000515;28;20108;-53
2023/07/26 02:14:16;;;;;;;2.83;1.00;;;;;;;20.73;56.16;101099.34;4998765;28;20049;-53
2023/07/26 02:16:41;;;;;;;0.70;0.70;;;;;;;20.72;55.87;101095.78;5002724;28;20502;-51
2023/07/26 02:19:06;;;;;;;0.80;0.80;;;;;;;20.72;56.39;101095.78;5000203;28;20061;-53
2023/07/26 02:21:32;;;;;;;0.85;0.85;;;;;;;20.72;55.85;101089.53;4999238;28;20124;-53
2023/07/26 02:23:57;;;;;;;3.70;1.00;;;;;;;20.71;55.84;101085.94;4999853;28;20049;-53
2023/07/26 02:26:22;;;;;;;0.95;0.95;;;;;;;20.71;56.22;101083.25;5000481;28;20034;-52
2023/07/26 02:28:48;;;;;;;1.02;1.00;;;;;;;20.71;55.77;101088.66;5000710;28;20439;-52
2023/07/26 02:31:13;;;;;;;0.70;0.70;;;;;;;20.72;55.90;101084.13;4999327;28;20038;-52
2023/07/26 02:33:39;;;;;;;0.85;0.85;;;;;;;20.70;56.01;101081.56;4999993;28;20034;-51
2023/07/26 02:36:04;;;;;;;1.10;1.00;;;;;;;20.70;56.26;101082.41;5000350;28;20026;-52
2023/07/26 02:38:29;;;;;;;1.38;1.05;;;;;;;20.70;56.05;101086.97;5000653;28;20084;-52
2023/07/26 02:40:55;;;;;;;1.55;0.88;;;;;;;20.70;55.80;101077.00;5000422;28;20119;-52
2023/07/26 02:43:20;;;;;;;2.50;0.93;;;;;;;20.70;55.72;101082.41;5000029;28;20042;-52
2023/07/26 02:45:45;;;;;;;0.80;0.80;;;;;;;20.69;56.01;101083.44;5001753;28;20586;-52
2023/07/26 02:48:11;;;;;;;1.35;1.02;;;;;;;20.69;55.71;101085.25;4999522;28;20046;-52
2023/07/26 02:50:36;;;;;;;1.00;0.80;;;;;;;20.68;56.03;101068.19;5000009;28;20042;-53
2023/07/26 02:53:02;;;;;;;1.10;0.98;;;;;;;20.68;55.65;101084.44;5000385;28;20031;-52
2023/07/26 02:55:27;;;;;;;0.85;0.85;;;;;;;20.67;55.34;101082.72;4999835;28;20042;-53
2023/07/26 02:57:52;;;;;;;0.80;0.80;;;;;;;20.66;55.73;101091.84;5000498;28;20488;-53
2023/07/26 03:00:18;;;;;;;0.90;0.90;;;;;;;20.67;56.10;101090.00;5000484;28;20034;-52
2023/07/26 03:02:43;;;;;;;1.02;1.00;;;;;;;20.66;55.48;101091.84;4998999;28;20139;-52
2023/07/26 03:05:08;;;;;;;0.80;0.80;;;;;;;20.66;55.85;101097.25;4999935;28;20042;-52
2023/07/26 03:07:34;;;;;;;2.45;1.08;;;;;;;20.66;55.22;101105.38;4999310;28;20095;-51
2023/07/26 03:10:00;;;;;;;1.20;0.95;;;;;;;20.65;55.39;101106.38;4999412;28;20038;-52
2023/07/26 03:12:25;;;;;;;1.50;1.00;;;;;;;20.65;55.56;101106.38;5000869;28;20030;-51
2023/07/26 03:14:51;;;;;;;2.15;1.13;;;;;;;20.65;55.66;101111.78;5002952;28;20030;-52
2023/07/26 03:17:16;;;;;;;1.55;1.08;;;;;;;20.64;55.31;101107.41;4999306;28;20034;-51
2023/07/26 03:19:42;;;;;;;1.13;0.98;;;;;;;20.64;55.26;101099.28;4999749;28;20041;-52
2023/07/26 03:22:07;;;;;;;0.90;0.90;;;;;;;20.65;55.50;101097.41;4997672;28;20118;-52
2023/07/26 03:24:32;;;;;;;0.93;0.93;;;;;;;20.63;54.94;101097.56;4999079;28;20538;-52
2023/07/26 03:26:58;;;;;;;1.17;1.15;;;;;;;20.63;55.09;101100.28;5003958;28;20161;-51
2023/07/26 03:29:24;;;;;;;1.30;1.20;;;;;;;20.63;55.24;101102.97;5005913;28;20034;-52
2023/07/26 03:31:49;;;;;;;0.88;0.88;;;;;;;20.63;55.19;101102.97;5006017;28;20520;-51
2023/07/26 03:34:15;;;;;;;2.50;1.00;;;;;;;20.62;55.28;101104.00;5006149;28;20057;-52
2023/07/26 03:36:40;;;;;;;0.77;0.77;;;;;;;20.62;55.52;101103.13;5006406;28;20464;-52
2023/07/26 03:39:06;;;;;;;0.98;0.88;;;;;;;20.61;55.35;101105.00;5004145;28;20068;-51
2023/07/26 03:41:32;;;;;;;1.00;0.90;;;;;;;20.61;55.19;101099.59;5005564;28;20038;-52
2023/07/26 03:43:57;;;;;;;0.93;0.93;;;;;;;20.61;55.46;101098.75;5006860;28;20049;-50
2023/07/26 03:46:22;;;;;;;1.15;1.02;;;;;;;20.61;55.00;101101.44;5005707;28;20038;-52
2023/07/26 03:48:48;;;;;;;0.98;0.90;;;;;;;20.61;55.38;101099.59;5005863;28;20038;-52
2023/07/26 03:51:13;;;;;;;0.90;0.90;;;;;;;20.60;55.29;101097.91;5006282;28;20119;-50
2023/07/26 03:53:38;;;;;;;1.35;0.90;;;;;;;20.61;55.19;101107.69;5005368;28;20030;-52
2023/07/26 03:56:04;;;;;;;0.90;0.90;;;;;;;20.60;55.32;101102.44;5005716;28;20068;-52
2023/07/26 03:58:29;;;;;;;0.60;0.60;;;;;;;20.60;55.15;101105.16;5006756;28;20080;-52
2023/07/26 04:00:55;;;;;;;1.08;0.88;;;;;;;20.60;55.36;101108.72;5005258;28;20038;-51
2023/07/26 04:03:20;;;;;;;1.13;1.02;;;;;;;20.59;54.88;101101.56;5005666;28;20037;-51
2023/07/26 04:05:45;;;;;;;1.17;0.90;;;;;;;20.59;55.14;101103.44;5007111;28;20391;-52
2023/07/26 04:08:11;;;;;;;1.15;0.80;;;;;;;20.58;54.98;101094.47;5004775;28;20040;-52
2023/07/26 04:10:37;;;;;;;0.85;0.75;;;;;;;20.58;55.41;101105.28;5006689;28;20058;-51
2023/07/26 04:13:02;;;;;;;1.00;0.90;;;;;;;20.58;55.30;101102.59;5005547;28;20126;-51
2023/07/26 04:15:29;;;;;;;0.98;0.98;;;;;;;20.58;55.26;101099.00;5006750;28;20042;-52
2023/07/26 04:17:55;;;;;;;1.08;0.90;;;;;;;20.57;55.18;101108.16;5003540;28;20440;-51
2023/07/26 04:20:20;;;;;;;1.52;1.15;;;;;;;20.57;55.11;101103.59;5006143;28;20065;-52
2023/07/26 04:22:45;;;;;;;1.00;0.90;;;;;;;20.57;54.81;101098.16;5006200;28;20439;-52
2023/07/26 04:25:11;;;;;;;0.80;0.80;;;;;;;20.58;54.68;101096.31;5005673;28;20101;-51
2023/07/26 04:27:36;;;;;;;1.15;1.05;;;;;;;20.56;55.06;101088.38;5005753;28;20040;-51
2023/07/26 04:30:03;;;;;;;0.70;0.70;;;;;;;20.56;54.92;101103.72;5005001;28;20104;-50
2023/07/26 04:32:28;;;;;;;1.58;1.15;;;;;;;20.56;54.79;101101.91;5005623;28;20042;-51
2023/07/26 04:34:53;;;;;;;1.70;0.93;;;;;;;20.55;54.93;101102.91;5001701;28;20049;-52
2023/07/26 04:37:19;;;;;;;0.73;0.70;;;;;;;20.56;54.61;101107.31;5003302;28;20038;-51
2023/07/26 04:39:48;;;;;;;0.70;0.70;;;;;;;20.56;55.33;101104.59;5003277;28;20034;-51
2023/07/26 04:42:13;;;;;;;0.70;0.70;;;;;;;20.56;54.70;101101.03;5001566;28;20045;-51
2023/07/26 04:44:39;;;;;;;1.13;1.02;;;;;;;20.54;54.76;101101.19;5006204;28;20029;-52
2023/07/26 04:47:04;;;;;;;0.77;0.65;;;;;;;20.55;55.10;101108.31;5000538;28;20038;-51
2023/07/26 04:49:30;;;;;;;1.65;0.90;;;;;;;20.54;54.79;101106.59;5002757;28;20085;-52
2023/07/26 04:51:55;;;;;;;0.75;0.70;;;;;;;20.54;54.60;101101.19;5002441;28;20030;-51
2023/07/26 04:54:20;;;;;;;1.00;0.90;;;;;;;20.54;54.92;101106.59;5002733;28;20034;-51
2023/07/26 04:56:46;;;;;;;1.15;0.88;;;;;;;20.54;54.79;101103.88;5001538;28;20038;-51
2023/07/26 04:59:11;;;;;;;2.13;0.95;;;;;;;20.53;54.62;101107.63;5002514;28;20109;-52
2023/07/26 05:01:37;;;;;;;1.08;0.90;;;;;;;20.54;54.90;101108.44;5001404;28;20903;-52
2023/07/26 05:04:02;;;;;;;0.80;0.80;;;;;;;20.53;54.95;101104.91;4996683;28;20030;-52
2023/07/26 05:06:30;;;;;;;1.10;0.98;;;;;;;20.51;54.51;101105.06;4997892;28;20038;-52
2023/07/26 05:08:55;;;;;;;1.17;1.08;;;;;;;20.52;54.50;101105.91;5002497;28;20472;-52
2023/07/26 05:11:22;;;;;;;0.93;0.90;;;;;;;20.51;54.31;101099.66;5001149;28;20041;-51
2023/07/26 05:13:48;;;;;;;1.00;0.90;;;;;;;20.51;54.64;101098.81;5001940;28;20427;-51
2023/07/26 05:16:14;;;;;;;0.80;0.70;;;;;;;20.51;54.85;101101.50;5002492;28;20122;-51
2023/07/26 05:18:39;;;;;;;1.27;0.80;;;;;;;20.51;54.37;101098.81;5001404;28;20514;-52
2023/07/26 05:21:04;;;;;;;1.40;0.90;;;;;;;20.50;54.42;101103.38;5000263;28;20037;-51
2023/07/26 05:23:30;;;;;;;2.95;0.90;;;;;;;20.53;54.81;101101.38;4996333;28;20030;-51
2023/07/26 05:25:55;;;;;;;0.80;0.80;;;;;;;20.54;54.79;101108.44;5001534;28;20030;-52
2023/07/26 05:28:21;;;;;;;0.70;0.70;;;;;;;20.52;54.27;101100.50;5001479;28;20133;-51
2023/07/26 05:30:46;;;;;;;0.93;0.82;;;;;;;20.54;54.75;101103.88;5002296;28;20034;-51
2023/07/26 05:33:11;;;;;;;0.98;0.93;;;;;;;20.53;54.40;101101.38;5000530;28;20522;-51
2023/07/26 05:35:38;;;;;;;1.15;0.77;;;;;;;20.52;54.16;101105.91;5001315;28;20418;-51
2023/07/26 05:38:04;;;;;;;1.00;0.90;;;;;;;20.53;54.45;101107.63;5002093;28;20033;-50
2023/07/26 05:40:29;;;;;;;1.08;0.98;;;;;;;20.53;54.47;101095.94;5001231;28;20038;-51
2023/07/26 05:42:55;;;;;;;1.20;1.08;;;;;;;20.53;54.69;101106.78;5000732;28;20521;-51
2023/07/26 05:45:20;;;;;;;1.00;0.90;;;;;;;20.55;54.83;101104.75;5001612;28;20249;-52
2023/07/26 05:47:46;;;;;;;1.45;0.80;;;;;;;20.54;54.41;101101.19;5001550;28;20037;-51
2023/07/26 05:50:11;;;;;;;1.15;0.82;;;;;;;20.55;54.27;101100.19;4997957;28;20064;-51
2023/07/26 05:52:38;;;;;;;0.90;0.77;;;;;;;20.54;54.37;101105.75;5000373;28;20080;-51
2023/07/26 05:55:04;;;;;;;0.77;0.77;;;;;;;20.55;54.26;101110.16;4998610;28;20031;-51
2023/07/26 05:57:30;;;;;;;1.58;1.10;;;;;;;20.54;54.25;101105.75;5003978;28;20112;-52
2023/07/26 05:59:56;;;;;;;0.93;0.93;;;;;;;20.56;54.54;101115.44;4994507;28;20116;-51
2023/07/26 06:02:21;;;;;;;1.00;0.90;;;;;;;20.54;54.20;101120.13;4999140;28;20387;-52
2023/07/26 06:04:47;;;;;;;0.93;0.85;;;;;;;20.55;54.48;101116.41;4999999;28;20506;-51
2023/07/26 06:07:13;;;;;;;0.77;0.77;;;;;;;20.55;54.16;101116.41;5002861;28;20034;-51
2023/07/26 06:09:38;;;;;;;0.90;0.88;;;;;;;20.56;54.15;101126.25;4998958;28;20035;-51
2023/07/26 06:12:04;;;;;;;1.40;1.13;;;;;;;20.56;54.09;101130.78;4993816;28;20042;-51
2023/07/26 06:14:30;;;;;;;1.95;1.08;;;;;;;20.55;54.49;101135.34;4992122;28;20038;-50
2023/07/26 06:16:55;;;;;;;1.05;0.95;;;;;;;20.55;54.14;101131.81;4993675;28;20034;-51
2023/07/26 06:19:22;;;;;;;0.75;0.75;;;;;;;20.53;53.88;101134.66;4992569;28;20026;-52
2023/07/26 06:21:48;;;;;;;1.02;1.00;;;;;;;20.55;53.98;101139.94;4993014;28;20038;-51
2023/07/26 06:24:13;;;;;;;0.95;0.88;;;;;;;20.56;54.19;101152.44;4994453;28;20096;-51
2023/07/26 06:26:39;;;;;;;0.88;0.88;;;;;;;20.55;54.07;101143.47;4991577;28;20042;-52
2023/07/26 06:29:04;;;;;;;0.90;0.90;;;;;;;20.56;54.00;101149.72;4994326;28;20528;-51
2023/07/26 06:31:30;;;;;;;1.73;1.10;;;;;;;20.56;54.03;101160.53;4993152;28;20026;-52
2023/07/26 06:33:55;;;;;;;0.98;0.90;;;;;;;20.54;54.50;101163.41;4992348;28;20023;-51
2023/07/26 06:36:20;;;;;;;1.65;1.10;;;;;;;20.55;54.29;101162.41;4993286;28;20026;-51
2023/07/26 06:38:46;;;;;;;1.13;1.00;;;;;;;20.55;54.03;101169.69;4992727;28;20034;-51
2023/07/26 06:41:11;;;;;;;1.08;1.00;;;;;;;20.56;54.24;101171.38;4990409;28;20053;-51
2023/07/26 06:43:37;;;;;;;1.33;1.10;;;;;;;20.54;54.19;101173.38;4992262;28;20065;-51
2023/07/26 06:46:03;;;;;;;0.90;0.90;;;;;;;20.54;53.79;101168.81;4996206;28;20030;-51
2023/07/26 06:48:28;;;;;;;1.00;0.90;;;;;;;20.54;53.93;101179.63;4991827;28;20033;-52
2023/07/26 06:50:54;;;;;;;1.33;1.10;;;;;;;20.52;54.20;101170.81;4997576;28;20034;-51
2023/07/26 06:53:19;;;;;;;1.20;0.80;;;;;;;20.53;54.08;101177.94;4998257;28;20029;-50
2023/07/26 06:55:45;;;;;;;2.35;0.90;;;;;;;20.53;53.93;101180.66;4991080;28;20031;-49
2023/07/26 06:58:10;;;;;;;1.38;0.93;;;;;;;20.54;53.88;101182.34;4990764;28;20044;-50
2023/07/26 07:00:36;;;;;;;0.90;0.80;;;;;;;20.53;54.04;101183.34;4992802;28;20042;-51
2023/07/26 07:03:03;;;;;;;1.50;0.95;;;;;;;20.51;54.09;101186.22;4992373;28;20029;-47
2023/07/26 07:05:30;;;;;;;1.08;0.93;;;;;;;20.53;53.99;101182.50;4995262;28;20446;-51
2023/07/26 07:07:56;;;;;;;1.48;1.10;;;;;;;20.52;54.44;101189.75;4996165;28;20486;-51
2023/07/26 07:10:23;;;;;;;1.60;1.30;;;;;;;20.51;53.68;101190.78;5000517;28;20045;-51
2023/07/26 07:12:48;;;;;;;0.90;0.90;;;;;;;20.50;53.91;101191.78;4999433;28;20037;-52
2023/07/26 07:15:14;;;;;;;1.13;0.82;;;;;;;20.50;53.97;101213.41;4999874;28;20038;-52
2023/07/26 07:17:39;;;;;;;1.25;1.10;;;;;;;20.50;53.90;101224.22;5000424;28;20112;-49
2023/07/26 07:20:07;;;;;;;1.50;1.27;;;;;;;20.50;54.13;101230.50;4997547;28;20050;-51
2023/07/26 07:22:33;;;;;;;1.08;1.00;;;;;;;20.49;54.00;101209.88;4999153;28;20057;-50
2023/07/26 07:24:58;;;;;;;1.27;1.17;;;;;;;20.50;53.84;101218.81;4998706;28;20112;-52
2023/07/26 07:27:24;;;;;;;1.30;1.20;;;;;;;20.50;54.48;101222.41;4993876;28;20160;-51
2023/07/26 07:29:49;;;;;;;1.92;1.20;;;;;;;20.50;54.33;101221.53;4996814;28;20038;-51
2023/07/26 07:32:16;;;;;;;1.40;1.30;;;;;;;20.49;54.39;101214.44;4998106;28;20494;-51
2023/07/26 07:34:42;;;;;;;1.17;1.00;;;;;;;20.50;54.32;101218.81;4996905;28;20089;-52
2023/07/26 07:37:07;;;;;;;1.05;1.00;;;;;;;20.50;54.29;101216.13;4998067;28;20076;-52
2023/07/26 07:39:32;;;;;;;2.22;1.27;;;;;;;20.50;54.43;101218.81;5000235;28;20037;-52
2023/07/26 07:41:58;;;;;;;1.30;1.00;;;;;;;20.50;54.09;101227.81;4993090;28;20473;-52
2023/07/26 07:44:23;;;;;;;1.10;1.00;;;;;;;20.51;54.21;101217.84;4995550;28;20038;-50
2023/07/26 07:46:49;;;;;;;2.05;1.70;;;;;;;20.50;53.82;101221.53;5001676;28;20044;-51
2023/07/26 07:49:14;;;;;;;1.10;0.95;;;;;;;20.50;53.77;101217.00;4999909;28;20112;-52
2023/07/26 07:51:40;;;;;;;1.20;1.02;;;;;;;20.49;54.03;101217.97;5000131;28;20125;-52
2023/07/26 07:54:05;;;;;;;1.63;1.05;;;;;;;20.49;53.98;101215.28;5001426;28;20057;-51
2023/07/26 07:56:31;;;;;;;1.45;1.00;;;;;;;20.49;54.29;101209.88;4996286;28;20037;-52
2023/07/26 07:58:56;;;;;;;1.35;1.10;;;;;;;20.52;54.18;101206.00;5003538;28;20033;-52
2023/07/26 08:01:22;;;;;;;1.33;1.23;;;;;;;20.51;54.06;101207.00;5000269;28;20026;-49
2023/07/26 08:03:47;;;;;;;1.70;1.02;;;;;;;20.51;53.89;101209.72;4999555;28;20121;-52
2023/07/26 08:06:13;;;;;;;1.88;1.30;;;;;;;20.52;54.31;101214.09;5002554;28;20483;-53
2023/07/26 08:08:39;;;;;;;1.20;1.10;;;;;;;20.52;54.50;101211.41;5003601;28;20061;-52
2023/07/26 08:11:06;;;;;;;1.77;0.95;;;;;;;20.53;53.92;101213.13;4999341;28;20034;-52
2023/07/26 08:13:33;;;;;;;1.80;1.10;;;;;;;20.53;54.02;101209.56;5002236;28;20088;-52
2023/07/26 08:15:58;;;;;;;1.30;1.20;;;;;;;20.53;54.49;101209.56;5004075;28;20072;-52
2023/07/26 08:18:23;;;;;;;1.35;1.25;;;;;;;20.53;54.06;101214.97;5004719;28;20058;-52
2023/07/26 08:20:49;;;;;;;1.40;1.08;;;;;;;20.53;54.31;101205.00;5003149;28;20073;-52
2023/07/26 08:23:14;;;;;;;1.13;0.88;;;;;;;20.54;54.33;101214.78;5002638;28;20046;-53
2023/07/26 08:25:40;;;;;;;1.88;1.00;;;;;;;20.52;53.90;101214.09;5002463;28;20069;-52
2023/07/26 08:28:05;;;;;;;1.55;1.13;;;;;;;20.52;54.44;101208.69;5002520;28;20031;-52
2023/07/26 08:30:31;;;;;;;2.25;1.30;;;;;;;20.53;54.14;101215.81;5005119;28;20026;-52
2023/07/26 08:32:57;;;;;;;2.03;1.13;;;;;;;20.53;54.19;101214.97;5004033;28;20500;-52
2023/07/26 08:35:22;;;;;;;2.00;1.10;;;;;;;20.54;54.51;101214.78;5003178;28;20662;-51
2023/07/26 08:37:48;;;;;;;1.33;0.98;;;;;;;20.54;54.51;101206.69;5003148;28;20489;-53
2023/07/26 08:40:13;;;;;;;1.13;1.00;;;;;;;20.54;54.42;101212.09;5003165;28;20034;-53
2023/07/26 08:42:39;;;;;;;1.50;1.33;;;;;;;20.54;54.57;101216.66;5003221;28;20477;-53
2023/07/26 08:45:06;;;;;;;1.55;1.00;;;;;;;20.54;54.43;101211.25;5003487;28;20034;-53
2023/07/26 08:47:35;;;;;;;1.02;0.90;;;;;;;20.54;54.56;101206.69;5004112;28;20034;-53
2023/07/26 08:50:00;;;;;;;1.13;1.02;;;;;;;20.55;54.17;101213.81;5002382;28;20165;-53
2023/07/26 08:52:27;;;;;;;1.15;1.05;;;;;;;20.54;54.58;101212.09;5003184;28;20101;-53
2023/07/26 08:54:52;;;;;;;1.42;1.15;;;;;;;20.54;54.20;101206.69;5003897;28;20034;-52
2023/07/26 08:57:19;;;;;;;1.88;1.20;;;;;;;20.54;54.42;101201.28;5004730;28;20049;-52
2023/07/26 08:59:44;;;;;;;2.03;1.20;;;;;;;20.55;54.19;101203.00;5003123;28;20040;-52
2023/07/26 09:02:13;;;;;;;1.08;0.98;;;;;;;20.55;54.06;101202.16;5003667;28;20038;-52
2023/07/26 09:04:39;;;;;;;0.98;0.95;;;;;;;20.55;54.26;101194.88;5002731;28;20058;-52
2023/07/26 09:07:05;;;;;;;1.42;1.33;;;;;;;20.54;54.19;101190.44;5002385;28;20069;-52
2023/07/26 09:09:32;;;;;;;1.45;1.30;;;;;;;20.55;54.63;101192.16;5003282;28;20104;-52
2023/07/26 09:11:58;;;;;;;1.35;1.25;;;;;;;20.55;54.23;101192.16;5002242;28;20041;-52
2023/07/26 09:14:29;;;;;;;1.00;0.90;;;;;;;20.54;54.29;101195.88;5002948;28;20026;-53
2023/07/26 09:16:56;;;;;;;1.00;0.90;;;;;;;20.56;54.63;101190.31;5003218;28;20038;-52
2023/07/26 09:19:30;;;;;;;1.55;1.13;;;;;;;20.56;54.60;101188.47;5002350;28;20034;-52
2023/07/26 09:22:00;;;;;;;1.15;0.98;;;;;;;20.55;54.35;101170.53;5002568;28;20400;-52
2023/07/26 09:24:36;;;;;;;1.75;1.00;;;;;;;20.55;54.81;101181.34;5002649;28;20476;-52
2023/07/26 09:27:07;;;;;;;1.83;1.08;;;;;;;20.54;54.68;101190.44;5004367;28;20116;-52
2023/07/26 09:29:36;;;;;;;1.00;0.90;;;;;;;20.54;54.84;101192.31;4999378;28;20290;-52
2023/07/26 09:32:02;;;;;;;1.15;1.10;;;;;;;20.54;54.32;101193.16;5002562;28;20404;-52
2023/07/26 09:34:29;;;;;;;1.67;1.15;;;;;;;20.55;54.31;101183.22;5002037;28;20037;-52
2023/07/26 09:36:56;;;;;;;1.67;1.10;;;;;;;20.55;54.36;101186.75;4998666;28;20085;-52
2023/07/26 09:39:25;;;;;;;1.13;0.93;;;;;;;20.56;54.35;101188.47;5004321;28;20133;-51
2023/07/26 09:42:03;;;;;;;0.90;0.90;;;;;;;20.56;54.46;101188.47;5001645;28;20033;-52
2023/07/26 09:44:28;;;;;;;1.60;0.88;;;;;;;20.56;54.50;101188.47;5001548;28;20033;-51
2023/07/26 09:46:56;;;;;;;1.15;0.93;;;;;;;20.55;54.51;101192.16;5005135;28;20026;-50
2023/07/26 09:49:23;;;;;;;1.23;1.13;;;;;;;20.54;54.57;101182.34;5001921;28;20156;-51
2023/07/26 09:51:54;;;;;;;0.70;0.70;;;;;;;20.54;54.71;101190.44;5002112;28;20054;-52
2023/07/26 09:54:21;;;;;;;1.10;1.00;;;;;;;20.54;54.81;101195.03;5002820;28;20112;-52
2023/07/26 09:56:46;;;;;;;1.08;0.90;;;;;;;20.54;54.29;101201.28;5002092;28;20507;-51
2023/07/26 09:59:13;;;;;;;1.30;1.20;;;;;;;20.53;54.49;101190.63;5003120;28;20061;-50
2023/07/26 10:01:44;;;;;;;1.15;1.02;;;;;;;20.53;54.64;101202.28;5002545;28;20459;-52
2023/07/26 10:04:16;;;;;;;0.95;0.80;;;;;;;20.53;54.68;101194.19;5002697;28;20442;-52
2023/07/26 10:06:42;;;;;;;0.88;0.88;;;;;;;20.52;54.93;101187.06;5001760;28;20061;-52
2023/07/26 10:09:16;;;;;;;1.70;1.17;;;;;;;20.54;54.42;101187.75;5002049;28;20040;-52
2023/07/26 10:11:43;;;;;;;0.88;0.77;;;;;;;20.56;54.36;101187.59;4998334;28;20117;-52
2023/07/26 10:14:11;;;;;;;1.40;1.05;;;;;;;20.56;54.62;101193.88;5001153;28;20030;-52
2023/07/26 10:16:38;;;;;;;0.95;0.95;;;;;;;20.55;54.86;101189.47;5001787;28;20619;-52
2023/07/26 10:19:04;;;;;;;1.13;0.93;;;;;;;20.55;54.81;101194.88;5001188;28;20033;-52
2023/07/26 10:21:30;;;;;;;1.40;1.10;;;;;;;20.55;54.82;101203.00;4999143;28;20479;-52
2023/07/26 10:23:58;;;;;;;0.75;0.73;;;;;;;20.56;54.81;101199.28;5000863;28;20042;-51
2023/07/26 10:26:29;;;;;;;1.70;1.20;;;;;;;20.54;54.94;101195.03;5000012;28;20540;-52
2023/07/26 10:28:59;;;;;;;1.03;1.00;;;;;;;20.55;54.49;101194.88;4999193;28;20061;-52
2023/07/26 10:31:25;;;;;;;1.08;0.90;;;;;;;20.54;54.59;101195.03;4997001;28;20400;-51
2023/07/26 10:33:53;;;;;;;1.70;1.20;;;;;;;20.53;54.58;101186.06;5001396;28;20054;-52
2023/07/26 10:36:18;;;;;;;1.27;1.10;;;;;;;20.54;54.74;101185.03;4999912;28;20388;-51
2023/07/26 10:38:48;;;;;;;1.08;0.75;;;;;;;20.53;54.83;101180.66;5001351;28;20041;-51
2023/07/26 10:41:25;;;;;;;2.47;1.20;;;;;;;20.55;54.99;101175.09;4999084;28;20044;-52
2023/07/26 10:44:07;;;;;;;1.27;0.98;;;;;;;20.56;54.60;101176.78;4995742;28;20125;-52
2023/07/26 10:47:00;;;;;;;0.90;0.90;;;;;;;20.56;54.60;101166.84;4995534;28;20362;-51
2023/07/26 10:49:28;;;;;;;1.02;0.80;;;;;;;20.55;54.69;101170.53;4999624;28;20045;-52
2023/07/26 10:51:59;;;;;;;1.10;1.00;;;;;;;20.56;54.56;101182.19;5000510;28;20531;-52
2023/07/26 10:54:34;;;;;;;0.93;0.93;;;;;;;20.56;54.87;101172.25;5000982;28;20042;-52
2023/07/26 10:57:28;;;;;;;1.08;0.98;;;;;;;20.56;54.99;101176.78;5002018;28;20029;-52
2023/07/26 11:00:04;;;;;;;1.13;1.02;;;;;;;20.56;54.92;101177.66;5000185;28;20058;-52
2023/07/26 11:02:39;;;;;;;1.25;1.15;;;;;;;20.57;55.05;101178.50;5000968;28;20040;-51
2023/07/26 11:05:16;;;;;;;1.17;1.10;;;;;;;20.57;54.69;101181.19;4996143;28;20030;-52
2023/07/26 11:07:48;;;;;;;1.23;0.98;;;;;;;20.58;55.03;101175.63;5001135;28;20471;-52
2023/07/26 11:10:24;;;;;;;1.10;0.82;;;;;;;20.58;54.73;101181.06;5004071;28;20029;-52
2023/07/26 11:13:02;;;;;;;1.23;1.02;;;;;;;20.58;55.05;101169.34;4996504;28;20042;-51
2023/07/26 11:15:29;;;;;;;1.05;0.95;;;;;;;20.59;55.08;101171.06;4999539;28;20037;-52
2023/07/26 11:17:54;;;;;;;1.05;1.00;;;;;;;20.58;54.85;101178.34;5001160;28;20388;-53
2023/07/26 11:20:20;;;;;;;1.13;1.05;;;;;;;20.57;54.77;101173.91;5002425;28;20034;-52
2023/07/26 11:22:45;;;;;;;1.15;1.05;;;;;;;20.59;55.05;101177.31;4999407;28;20034;-53